sensor_id;sensor_type;location;lat;lon;timestamp;P1;durP1;ratioP1;P2;durP2;ratioP2
4986;SDS011;12674;51.500;7.552;2023-04-15T00:00:01;10.83;;;6.40;;
4986;SDS011;12674;51.500;7.552;2023-04-15T00:02:13;12.73;;;5.30;;
4986;SDS011;12674;51.500;7.552;2023-04-15T00:04:18;6.73;;;5.43;;
4986;SDS011;12674;51.500;7.552;2023-04-15T00:06:22;10.63;;;5.83;;
4986;SDS011;12674;51.500;7.552;2023-04-15T00:08:25;11.10;;;6.97;;
4986;SDS011;12674;51.500;7.552;2023-04-15T00:10:29;13.70;;;6.63;;
4986;SDS011;12674;51.500;7.552;2023-04-15T00:12:32;14.80;;;7.37;;
4986;SDS011;12674;51.500;7.552;2023-04-15T00:14:35;13.53;;;6.97;;
4986;SDS011;12674;51.500;7.552;2023-04-15T00:16:38;13.90;;;6.80;;
4986;SDS011;12674;51.500;7.552;2023-04-15T00:18:41;11.10;;;7.60;;
4986;SDS011;12674;51.500;7.552;2023-04-15T00:20:44;14.90;;;7.67;;
4986;SDS011;12674;51.500;7.552;2023-04-15T00:22:47;15.63;;;7.23;;
4986;SDS011;12674;51.500;7.552;2023-04-15T00:24:51;13.97;;;6.90;;
4986;SDS011;12674;51.500;7.552;2023-04-15T00:26:55;8.80;;;6.87;;
4986;SDS011;12674;51.500;7.552;2023-04-15T00:28:59;18.60;;;9.10;;
4986;SDS011;12674;51.500;7.552;2023-04-15T00:31:02;16.93;;;7.37;;
4986;SDS011;12674;51.500;7.552;2023-04-15T00:33:06;10.47;;;7.00;;
4986;SDS011;12674;51.500;7.552;2023-04-15T00:35:09;7.27;;;6.33;;
4986;SDS011;12674;51.500;7.552;2023-04-15T00:37:12;7.80;;;6.50;;
4986;SDS011;12674;51.500;7.552;2023-04-15T00:39:15;7.00;;;6.30;;
4986;SDS011;12674;51.500;7.552;2023-04-15T00:41:18;13.17;;;7.83;;
4986;SDS011;12674;51.500;7.552;2023-04-15T00:43:24;11.50;;;7.40;;
4986;SDS011;12674;51.500;7.552;2023-04-15T00:45:28;16.03;;;8.17;;
4986;SDS011;12674;51.500;7.552;2023-04-15T00:47:31;12.00;;;7.97;;
4986;SDS011;12674;51.500;7.552;2023-04-15T00:49:35;11.30;;;7.83;;
4986;SDS011;12674;51.500;7.552;2023-04-15T00:51:38;10.03;;;7.10;;
4986;SDS011;12674;51.500;7.552;2023-04-15T00:53:41;13.40;;;7.53;;
4986;SDS011;12674;51.500;7.552;2023-04-15T00:55:45;9.53;;;6.87;;
4986;SDS011;12674;51.500;7.552;2023-04-15T00:57:48;14.13;;;9.40;;
4986;SDS011;12674;51.500;7.552;2023-04-15T00:59:53;11.60;;;8.00;;
4986;SDS011;12674;51.500;7.552;2023-04-15T01:01:57;14.30;;;8.50;;
4986;SDS011;12674;51.500;7.552;2023-04-15T01:04:00;13.10;;;8.70;;
4986;SDS011;12674;51.500;7.552;2023-04-15T01:06:04;10.80;;;6.93;;
4986;SDS011;12674;51.500;7.552;2023-04-15T01:08:07;10.83;;;7.20;;
4986;SDS011;12674;51.500;7.552;2023-04-15T01:10:10;16.93;;;8.00;;
4986;SDS011;12674;51.500;7.552;2023-04-15T01:12:14;10.80;;;7.90;;
4986;SDS011;12674;51.500;7.552;2023-04-15T01:14:18;7.97;;;7.17;;
4986;SDS011;12674;51.500;7.552;2023-04-15T01:16:23;11.57;;;8.00;;
4986;SDS011;12674;51.500;7.552;2023-04-15T01:18:27;10.67;;;8.40;;
4986;SDS011;12674;51.500;7.552;2023-04-15T01:20:30;9.03;;;7.37;;
4986;SDS011;12674;51.500;7.552;2023-04-15T01:22:33;13.30;;;7.90;;
4986;SDS011;12674;51.500;7.552;2023-04-15T01:24:37;10.30;;;7.73;;
4986;SDS011;12674;51.500;7.552;2023-04-15T01:26:41;9.37;;;7.13;;
4986;SDS011;12674;51.500;7.552;2023-04-15T01:28:45;10.20;;;7.60;;
4986;SDS011;12674;51.500;7.552;2023-04-15T01:30:47;12.17;;;7.97;;
4986;SDS011;12674;51.500;7.552;2023-04-15T01:32:50;10.70;;;8.17;;
4986;SDS011;12674;51.500;7.552;2023-04-15T01:34:53;9.47;;;6.97;;
4986;SDS011;12674;51.500;7.552;2023-04-15T01:36:57;9.17;;;7.73;;
4986;SDS011;12674;51.500;7.552;2023-04-15T01:39:00;11.23;;;7.83;;
4986;SDS011;12674;51.500;7.552;2023-04-15T01:41:03;14.20;;;8.73;;
4986;SDS011;12674;51.500;7.552;2023-04-15T01:43:09;15.17;;;8.43;;
4986;SDS011;12674;51.500;7.552;2023-04-15T01:45:12;10.23;;;8.03;;
4986;SDS011;12674;51.500;7.552;2023-04-15T01:47:15;12.40;;;8.50;;
4986;SDS011;12674;51.500;7.552;2023-04-15T01:49:18;14.67;;;9.17;;
4986;SDS011;12674;51.500;7.552;2023-04-15T01:51:21;12.23;;;8.37;;
4986;SDS011;12674;51.500;7.552;2023-04-15T01:53:24;10.50;;;8.33;;
4986;SDS011;12674;51.500;7.552;2023-04-15T01:55:27;8.10;;;7.30;;
4986;SDS011;12674;51.500;7.552;2023-04-15T01:57:30;9.40;;;7.30;;
4986;SDS011;12674;51.500;7.552;2023-04-15T01:59:35;14.13;;;8.50;;
4986;SDS011;12674;51.500;7.552;2023-04-15T02:01:38;13.73;;;8.40;;
4986;SDS011;12674;51.500;7.552;2023-04-15T02:03:41;11.50;;;6.83;;
4986;SDS011;12674;51.500;7.552;2023-04-15T02:05:44;9.20;;;8.03;;
4986;SDS011;12674;51.500;7.552;2023-04-15T02:07:47;9.60;;;7.47;;
4986;SDS011;12674;51.500;7.552;2023-04-15T02:09:50;11.00;;;8.77;;
4986;SDS011;12674;51.500;7.552;2023-04-15T02:11:53;9.90;;;8.50;;
4986;SDS011;12674;51.500;7.552;2023-04-15T02:13:57;14.30;;;8.67;;
4986;SDS011;12674;51.500;7.552;2023-04-15T02:16:01;10.93;;;8.20;;
4986;SDS011;12674;51.500;7.552;2023-04-15T02:18:05;14.77;;;8.13;;
4986;SDS011;12674;51.500;7.552;2023-04-15T02:20:10;10.80;;;9.03;;
4986;SDS011;12674;51.500;7.552;2023-04-15T02:22:13;12.23;;;7.70;;
4986;SDS011;12674;51.500;7.552;2023-04-15T02:24:20;9.40;;;7.97;;
4986;SDS011;12674;51.500;7.552;2023-04-15T02:26:23;17.10;;;10.03;;
4986;SDS011;12674;51.500;7.552;2023-04-15T02:28:28;9.43;;;8.50;;
4986;SDS011;12674;51.500;7.552;2023-04-15T02:30:31;11.30;;;7.90;;
4986;SDS011;12674;51.500;7.552;2023-04-15T02:32:37;16.57;;;8.87;;
4986;SDS011;12674;51.500;7.552;2023-04-15T02:34:40;17.73;;;8.80;;
4986;SDS011;12674;51.500;7.552;2023-04-15T02:36:44;9.53;;;8.03;;
4986;SDS011;12674;51.500;7.552;2023-04-15T02:38:48;9.90;;;8.20;;
4986;SDS011;12674;51.500;7.552;2023-04-15T02:40:52;10.53;;;8.87;;
4986;SDS011;12674;51.500;7.552;2023-04-15T02:42:55;14.87;;;8.23;;
4986;SDS011;12674;51.500;7.552;2023-04-15T02:44:58;10.93;;;8.30;;
4986;SDS011;12674;51.500;7.552;2023-04-15T02:47:05;11.70;;;9.00;;
4986;SDS011;12674;51.500;7.552;2023-04-15T02:49:12;10.53;;;7.50;;
4986;SDS011;12674;51.500;7.552;2023-04-15T02:51:20;9.57;;;8.00;;
4986;SDS011;12674;51.500;7.552;2023-04-15T02:53:23;13.50;;;7.97;;
4986;SDS011;12674;51.500;7.552;2023-04-15T02:55:27;16.20;;;9.10;;
4986;SDS011;12674;51.500;7.552;2023-04-15T02:57:32;9.40;;;8.00;;
4986;SDS011;12674;51.500;7.552;2023-04-15T02:59:40;12.10;;;8.43;;
4986;SDS011;12674;51.500;7.552;2023-04-15T03:01:43;10.57;;;9.07;;
4986;SDS011;12674;51.500;7.552;2023-04-15T03:03:46;10.50;;;8.80;;
4986;SDS011;12674;51.500;7.552;2023-04-15T03:05:50;12.97;;;9.77;;
4986;SDS011;12674;51.500;7.552;2023-04-15T03:07:53;13.20;;;8.97;;
4986;SDS011;12674;51.500;7.552;2023-04-15T03:09:57;13.30;;;8.60;;
4986;SDS011;12674;51.500;7.552;2023-04-15T03:12:00;11.83;;;8.63;;
4986;SDS011;12674;51.500;7.552;2023-04-15T03:14:03;9.93;;;8.43;;
4986;SDS011;12674;51.500;7.552;2023-04-15T03:16:09;9.50;;;7.83;;
4986;SDS011;12674;51.500;7.552;2023-04-15T03:18:12;9.43;;;7.87;;
4986;SDS011;12674;51.500;7.552;2023-04-15T03:20:16;16.13;;;7.93;;
4986;SDS011;12674;51.500;7.552;2023-04-15T03:22:22;13.23;;;8.20;;
4986;SDS011;12674;51.500;7.552;2023-04-15T03:24:26;14.43;;;8.00;;
4986;SDS011;12674;51.500;7.552;2023-04-15T03:26:31;10.50;;;7.67;;
4986;SDS011;12674;51.500;7.552;2023-04-15T03:28:39;15.80;;;9.97;;
4986;SDS011;12674;51.500;7.552;2023-04-15T03:30:42;11.03;;;7.97;;
4986;SDS011;12674;51.500;7.552;2023-04-15T03:32:46;18.30;;;9.27;;
4986;SDS011;12674;51.500;7.552;2023-04-15T03:34:49;11.10;;;8.40;;
4986;SDS011;12674;51.500;7.552;2023-04-15T03:36:52;11.73;;;7.67;;
4986;SDS011;12674;51.500;7.552;2023-04-15T03:38:56;13.00;;;8.03;;
4986;SDS011;12674;51.500;7.552;2023-04-15T03:41:00;12.03;;;8.10;;
4986;SDS011;12674;51.500;7.552;2023-04-15T03:43:03;12.00;;;7.80;;
4986;SDS011;12674;51.500;7.552;2023-04-15T03:45:06;8.83;;;7.93;;
4986;SDS011;12674;51.500;7.552;2023-04-15T03:47:10;20.20;;;8.70;;
4986;SDS011;12674;51.500;7.552;2023-04-15T03:49:13;8.90;;;7.30;;
4986;SDS011;12674;51.500;7.552;2023-04-15T03:51:16;9.53;;;7.73;;
4986;SDS011;12674;51.500;7.552;2023-04-15T03:53:20;10.17;;;8.40;;
4986;SDS011;12674;51.500;7.552;2023-04-15T03:55:24;11.73;;;8.73;;
4986;SDS011;12674;51.500;7.552;2023-04-15T03:57:27;11.90;;;9.00;;
4986;SDS011;12674;51.500;7.552;2023-04-15T03:59:30;12.03;;;7.77;;
4986;SDS011;12674;51.500;7.552;2023-04-15T04:01:33;7.67;;;6.87;;
4986;SDS011;12674;51.500;7.552;2023-04-15T04:03:36;17.87;;;8.50;;
4986;SDS011;12674;51.500;7.552;2023-04-15T04:05:40;9.57;;;7.53;;
4986;SDS011;12674;51.500;7.552;2023-04-15T04:07:44;16.10;;;8.80;;
4986;SDS011;12674;51.500;7.552;2023-04-15T04:09:47;11.50;;;8.77;;
4986;SDS011;12674;51.500;7.552;2023-04-15T04:11:52;10.40;;;8.20;;
4986;SDS011;12674;51.500;7.552;2023-04-15T04:13:55;10.67;;;8.43;;
4986;SDS011;12674;51.500;7.552;2023-04-15T04:15:58;9.60;;;8.60;;
4986;SDS011;12674;51.500;7.552;2023-04-15T04:18:02;10.37;;;7.63;;
4986;SDS011;12674;51.500;7.552;2023-04-15T04:20:06;16.60;;;9.57;;
4986;SDS011;12674;51.500;7.552;2023-04-15T04:22:09;12.07;;;9.03;;
4986;SDS011;12674;51.500;7.552;2023-04-15T04:24:12;14.03;;;9.13;;
4986;SDS011;12674;51.500;7.552;2023-04-15T04:26:15;11.80;;;7.80;;
4986;SDS011;12674;51.500;7.552;2023-04-15T04:28:20;10.40;;;8.33;;
4986;SDS011;12674;51.500;7.552;2023-04-15T04:30:23;9.87;;;8.50;;
4986;SDS011;12674;51.500;7.552;2023-04-15T04:32:26;11.13;;;8.30;;
4986;SDS011;12674;51.500;7.552;2023-04-15T04:34:29;10.40;;;8.30;;
4986;SDS011;12674;51.500;7.552;2023-04-15T04:36:32;11.97;;;9.00;;
4986;SDS011;12674;51.500;7.552;2023-04-15T04:38:35;15.43;;;8.60;;
4986;SDS011;12674;51.500;7.552;2023-04-15T04:40:39;10.90;;;8.47;;
4986;SDS011;12674;51.500;7.552;2023-04-15T04:42:42;13.73;;;9.10;;
4986;SDS011;12674;51.500;7.552;2023-04-15T04:44:46;13.90;;;9.87;;
4986;SDS011;12674;51.500;7.552;2023-04-15T04:46:51;10.43;;;7.40;;
4986;SDS011;12674;51.500;7.552;2023-04-15T04:48:54;11.20;;;7.63;;
4986;SDS011;12674;51.500;7.552;2023-04-15T04:50:57;10.77;;;8.47;;
4986;SDS011;12674;51.500;7.552;2023-04-15T04:53:00;11.20;;;8.33;;
4986;SDS011;12674;51.500;7.552;2023-04-15T04:55:03;15.30;;;9.53;;
4986;SDS011;12674;51.500;7.552;2023-04-15T04:57:08;15.63;;;8.00;;
4986;SDS011;12674;51.500;7.552;2023-04-15T04:59:13;12.53;;;8.70;;
4986;SDS011;12674;51.500;7.552;2023-04-15T05:01:19;13.00;;;8.97;;
4986;SDS011;12674;51.500;7.552;2023-04-15T05:03:22;14.43;;;7.77;;
4986;SDS011;12674;51.500;7.552;2023-04-15T05:05:26;12.70;;;9.10;;
4986;SDS011;12674;51.500;7.552;2023-04-15T05:07:29;11.30;;;8.53;;
4986;SDS011;12674;51.500;7.552;2023-04-15T05:09:32;12.50;;;8.67;;
4986;SDS011;12674;51.500;7.552;2023-04-15T05:11:37;10.93;;;8.60;;
4986;SDS011;12674;51.500;7.552;2023-04-15T05:13:39;12.37;;;8.83;;
4986;SDS011;12674;51.500;7.552;2023-04-15T05:15:42;15.37;;;8.70;;
4986;SDS011;12674;51.500;7.552;2023-04-15T05:17:47;12.43;;;8.03;;
4986;SDS011;12674;51.500;7.552;2023-04-15T05:19:53;13.83;;;8.40;;
4986;SDS011;12674;51.500;7.552;2023-04-15T05:21:56;13.53;;;8.47;;
4986;SDS011;12674;51.500;7.552;2023-04-15T05:24:00;12.40;;;9.20;;
4986;SDS011;12674;51.500;7.552;2023-04-15T05:26:03;9.00;;;8.10;;
4986;SDS011;12674;51.500;7.552;2023-04-15T05:28:06;11.83;;;9.07;;
4986;SDS011;12674;51.500;7.552;2023-04-15T05:30:10;14.93;;;9.20;;
4986;SDS011;12674;51.500;7.552;2023-04-15T05:32:14;11.10;;;9.13;;
4986;SDS011;12674;51.500;7.552;2023-04-15T05:34:19;10.87;;;8.83;;
4986;SDS011;12674;51.500;7.552;2023-04-15T05:36:22;11.90;;;7.80;;
4986;SDS011;12674;51.500;7.552;2023-04-15T05:38:26;11.57;;;8.30;;
4986;SDS011;12674;51.500;7.552;2023-04-15T05:40:29;13.40;;;9.07;;
4986;SDS011;12674;51.500;7.552;2023-04-15T05:42:33;12.43;;;9.40;;
4986;SDS011;12674;51.500;7.552;2023-04-15T05:44:37;12.20;;;9.40;;
4986;SDS011;12674;51.500;7.552;2023-04-15T05:46:40;11.20;;;8.80;;
4986;SDS011;12674;51.500;7.552;2023-04-15T05:48:43;12.93;;;8.33;;
4986;SDS011;12674;51.500;7.552;2023-04-15T05:50:48;11.93;;;8.73;;
4986;SDS011;12674;51.500;7.552;2023-04-15T05:52:51;16.20;;;10.13;;
4986;SDS011;12674;51.500;7.552;2023-04-15T05:54:54;12.43;;;8.90;;
4986;SDS011;12674;51.500;7.552;2023-04-15T05:56:57;11.90;;;8.67;;
4986;SDS011;12674;51.500;7.552;2023-04-15T05:59:01;11.23;;;8.70;;
4986;SDS011;12674;51.500;7.552;2023-04-15T06:01:04;15.37;;;10.20;;
4986;SDS011;12674;51.500;7.552;2023-04-15T06:03:08;11.70;;;8.60;;
4986;SDS011;12674;51.500;7.552;2023-04-15T06:05:12;13.33;;;9.20;;
4986;SDS011;12674;51.500;7.552;2023-04-15T06:07:16;11.80;;;9.40;;
4986;SDS011;12674;51.500;7.552;2023-04-15T06:09:19;12.27;;;9.93;;
4986;SDS011;12674;51.500;7.552;2023-04-15T06:11:22;18.57;;;9.70;;
4986;SDS011;12674;51.500;7.552;2023-04-15T06:13:25;11.40;;;10.00;;
4986;SDS011;12674;51.500;7.552;2023-04-15T06:15:28;16.03;;;10.27;;
4986;SDS011;12674;51.500;7.552;2023-04-15T06:17:32;13.43;;;10.17;;
4986;SDS011;12674;51.500;7.552;2023-04-15T06:19:35;14.50;;;11.07;;
4986;SDS011;12674;51.500;7.552;2023-04-15T06:21:38;18.40;;;10.40;;
4986;SDS011;12674;51.500;7.552;2023-04-15T06:23:42;18.60;;;11.87;;
4986;SDS011;12674;51.500;7.552;2023-04-15T06:25:46;13.17;;;10.53;;
4986;SDS011;12674;51.500;7.552;2023-04-15T06:27:49;14.70;;;11.00;;
4986;SDS011;12674;51.500;7.552;2023-04-15T06:29:52;17.20;;;12.83;;
4986;SDS011;12674;51.500;7.552;2023-04-15T06:31:55;18.23;;;10.90;;
4986;SDS011;12674;51.500;7.552;2023-04-15T06:33:58;13.27;;;11.40;;
4986;SDS011;12674;51.500;7.552;2023-04-15T06:36:01;11.83;;;9.70;;
4986;SDS011;12674;51.500;7.552;2023-04-15T06:38:04;13.43;;;9.90;;
4986;SDS011;12674;51.500;7.552;2023-04-15T06:40:09;17.73;;;11.50;;
4986;SDS011;12674;51.500;7.552;2023-04-15T06:42:13;13.33;;;9.53;;
4986;SDS011;12674;51.500;7.552;2023-04-15T06:44:16;17.70;;;10.33;;
4986;SDS011;12674;51.500;7.552;2023-04-15T06:46:20;11.60;;;9.83;;
4986;SDS011;12674;51.500;7.552;2023-04-15T06:48:24;12.33;;;9.80;;
4986;SDS011;12674;51.500;7.552;2023-04-15T06:50:28;12.93;;;9.47;;
4986;SDS011;12674;51.500;7.552;2023-04-15T06:52:31;11.73;;;9.93;;
4986;SDS011;12674;51.500;7.552;2023-04-15T06:54:34;11.80;;;9.30;;
4986;SDS011;12674;51.500;7.552;2023-04-15T07:00:57;11.33;;;8.77;;
4986;SDS011;12674;51.500;7.552;2023-04-15T07:03:00;13.83;;;10.00;;
4986;SDS011;12674;51.500;7.552;2023-04-15T07:05:05;13.87;;;10.77;;
4986;SDS011;12674;51.500;7.552;2023-04-15T07:07:08;12.10;;;10.07;;
4986;SDS011;12674;51.500;7.552;2023-04-15T07:09:11;20.13;;;12.30;;
4986;SDS011;12674;51.500;7.552;2023-04-15T07:11:14;14.63;;;11.70;;
4986;SDS011;12674;51.500;7.552;2023-04-15T07:13:18;12.63;;;11.33;;
4986;SDS011;12674;51.500;7.552;2023-04-15T07:15:21;14.83;;;11.70;;
4986;SDS011;12674;51.500;7.552;2023-04-15T07:17:26;15.73;;;11.03;;
4986;SDS011;12674;51.500;7.552;2023-04-15T07:19:29;12.93;;;10.93;;
4986;SDS011;12674;51.500;7.552;2023-04-15T07:30:10;12.03;;;9.63;;
4986;SDS011;12674;51.500;7.552;2023-04-15T07:32:13;14.03;;;10.90;;
4986;SDS011;12674;51.500;7.552;2023-04-15T07:34:18;11.70;;;10.50;;
4986;SDS011;12674;51.500;7.552;2023-04-15T07:40:33;17.03;;;10.20;;
4986;SDS011;12674;51.500;7.552;2023-04-15T07:42:36;12.93;;;10.10;;
4986;SDS011;12674;51.500;7.552;2023-04-15T07:44:41;14.90;;;10.07;;
4986;SDS011;12674;51.500;7.552;2023-04-15T07:46:45;14.70;;;10.40;;
4986;SDS011;12674;51.500;7.552;2023-04-15T07:48:48;12.07;;;9.67;;
4986;SDS011;12674;51.500;7.552;2023-04-15T07:50:53;15.90;;;11.13;;
4986;SDS011;12674;51.500;7.552;2023-04-15T07:57:17;11.10;;;9.10;;
4986;SDS011;12674;51.500;7.552;2023-04-15T07:59:21;10.87;;;9.70;;
4986;SDS011;12674;51.500;7.552;2023-04-15T08:01:24;16.00;;;10.90;;
4986;SDS011;12674;51.500;7.552;2023-04-15T08:03:27;12.60;;;9.20;;
4986;SDS011;12674;51.500;7.552;2023-04-15T08:05:30;10.27;;;8.87;;
4986;SDS011;12674;51.500;7.552;2023-04-15T08:07:35;11.77;;;9.80;;
4986;SDS011;12674;51.500;7.552;2023-04-15T08:09:38;11.60;;;9.50;;
4986;SDS011;12674;51.500;7.552;2023-04-15T08:11:42;9.53;;;8.30;;
4986;SDS011;12674;51.500;7.552;2023-04-15T08:13:45;11.27;;;9.37;;
4986;SDS011;12674;51.500;7.552;2023-04-15T08:18:19;8.70;;;7.90;;
4986;SDS011;12674;51.500;7.552;2023-04-15T08:20:23;8.63;;;7.70;;
4986;SDS011;12674;51.500;7.552;2023-04-15T08:22:26;11.05;;;8.90;;
4986;SDS011;12674;51.500;7.552;2023-04-15T08:24:30;8.80;;;7.80;;
4986;SDS011;12674;51.500;7.552;2023-04-15T08:26:33;10.50;;;8.07;;
4986;SDS011;12674;51.500;7.552;2023-04-15T08:28:37;10.10;;;8.00;;
4986;SDS011;12674;51.500;7.552;2023-04-15T08:30:40;14.10;;;8.20;;
4986;SDS011;12674;51.500;7.552;2023-04-15T08:32:45;9.47;;;7.90;;
4986;SDS011;12674;51.500;7.552;2023-04-15T08:34:48;17.90;;;7.63;;
4986;SDS011;12674;51.500;7.552;2023-04-15T08:36:51;12.67;;;7.20;;
4986;SDS011;12674;51.500;7.552;2023-04-15T08:38:54;7.73;;;6.70;;
4986;SDS011;12674;51.500;7.552;2023-04-15T08:41:02;7.73;;;6.90;;
4986;SDS011;12674;51.500;7.552;2023-04-15T08:43:08;9.20;;;7.50;;
4986;SDS011;12674;51.500;7.552;2023-04-15T08:45:12;10.50;;;7.87;;
4986;SDS011;12674;51.500;7.552;2023-04-15T08:47:15;9.40;;;7.80;;
4986;SDS011;12674;51.500;7.552;2023-04-15T08:49:23;8.80;;;6.70;;
4986;SDS011;12674;51.500;7.552;2023-04-15T08:51:29;8.90;;;7.30;;
4986;SDS011;12674;51.500;7.552;2023-04-15T08:53:32;8.43;;;6.70;;
4986;SDS011;12674;51.500;7.552;2023-04-15T08:55:36;8.00;;;6.63;;
4986;SDS011;12674;51.500;7.552;2023-04-15T08:57:46;7.40;;;6.70;;
4986;SDS011;12674;51.500;7.552;2023-04-15T08:59:49;8.80;;;6.80;;
4986;SDS011;12674;51.500;7.552;2023-04-15T09:01:53;8.53;;;7.10;;
4986;SDS011;12674;51.500;7.552;2023-04-15T09:03:57;8.47;;;7.47;;
4986;SDS011;12674;51.500;7.552;2023-04-15T09:06:02;8.30;;;7.37;;
4986;SDS011;12674;51.500;7.552;2023-04-15T09:08:06;8.70;;;7.80;;
4986;SDS011;12674;51.500;7.552;2023-04-15T09:10:09;7.90;;;7.00;;
4986;SDS011;12674;51.500;7.552;2023-04-15T09:12:13;7.70;;;6.50;;
4986;SDS011;12674;51.500;7.552;2023-04-15T09:14:18;7.47;;;6.27;;
4986;SDS011;12674;51.500;7.552;2023-04-15T09:16:22;8.23;;;6.50;;
4986;SDS011;12674;51.500;7.552;2023-04-15T09:18:26;6.90;;;6.27;;
4986;SDS011;12674;51.500;7.552;2023-04-15T09:20:37;8.17;;;6.73;;
4986;SDS011;12674;51.500;7.552;2023-04-15T09:22:41;6.80;;;6.10;;
4986;SDS011;12674;51.500;7.552;2023-04-15T09:24:46;7.73;;;6.93;;
4986;SDS011;12674;51.500;7.552;2023-04-15T09:26:51;9.60;;;7.13;;
4986;SDS011;12674;51.500;7.552;2023-04-15T09:29:01;7.50;;;6.70;;
4986;SDS011;12674;51.500;7.552;2023-04-15T09:31:08;9.17;;;7.90;;
4986;SDS011;12674;51.500;7.552;2023-04-15T09:33:13;8.30;;;7.47;;
4986;SDS011;12674;51.500;7.552;2023-04-15T09:35:16;8.67;;;7.77;;
4986;SDS011;12674;51.500;7.552;2023-04-15T09:37:23;8.67;;;7.77;;
4986;SDS011;12674;51.500;7.552;2023-04-15T09:39:45;8.70;;;7.70;;
4986;SDS011;12674;51.500;7.552;2023-04-15T09:44:21;9.53;;;6.87;;
4986;SDS011;12674;51.500;7.552;2023-04-15T09:51:11;18.07;;;13.23;;
4986;SDS011;12674;51.500;7.552;2023-04-15T09:53:15;14.30;;;9.10;;
4986;SDS011;12674;51.500;7.552;2023-04-15T09:55:19;9.23;;;8.20;;
4986;SDS011;12674;51.500;7.552;2023-04-15T09:57:23;8.53;;;7.60;;
4986;SDS011;12674;51.500;7.552;2023-04-15T09:59:26;13.80;;;10.10;;
4986;SDS011;12674;51.500;7.552;2023-04-15T10:01:29;11.30;;;9.10;;
4986;SDS011;12674;51.500;7.552;2023-04-15T10:03:33;9.00;;;7.87;;
4986;SDS011;12674;51.500;7.552;2023-04-15T10:05:38;10.73;;;7.60;;
4986;SDS011;12674;51.500;7.552;2023-04-15T10:07:41;11.47;;;6.97;;
4986;SDS011;12674;51.500;7.552;2023-04-15T10:09:44;8.60;;;5.50;;
4986;SDS011;12674;51.500;7.552;2023-04-15T10:11:48;7.57;;;6.70;;
4986;SDS011;12674;51.500;7.552;2023-04-15T10:13:51;7.50;;;6.70;;
4986;SDS011;12674;51.500;7.552;2023-04-15T10:15:56;9.37;;;7.73;;
4986;SDS011;12674;51.500;7.552;2023-04-15T10:18:00;9.70;;;6.90;;
4986;SDS011;12674;51.500;7.552;2023-04-15T10:20:05;6.50;;;5.90;;
4986;SDS011;12674;51.500;7.552;2023-04-15T10:22:11;7.10;;;6.40;;
4986;SDS011;12674;51.500;7.552;2023-04-15T10:24:15;13.50;;;6.10;;
4986;SDS011;12674;51.500;7.552;2023-04-15T10:26:19;6.73;;;5.97;;
4986;SDS011;12674;51.500;7.552;2023-04-15T10:28:22;7.17;;;6.47;;
4986;SDS011;12674;51.500;7.552;2023-04-15T10:30:25;7.40;;;6.60;;
4986;SDS011;12674;51.500;7.552;2023-04-15T10:32:29;12.53;;;7.40;;
4986;SDS011;12674;51.500;7.552;2023-04-15T10:34:32;9.93;;;7.10;;
4986;SDS011;12674;51.500;7.552;2023-04-15T10:36:36;9.13;;;8.23;;
4986;SDS011;12674;51.500;7.552;2023-04-15T10:38:41;13.60;;;7.70;;
4986;SDS011;12674;51.500;7.552;2023-04-15T10:40:46;10.80;;;8.70;;
4986;SDS011;12674;51.500;7.552;2023-04-15T10:42:49;9.37;;;6.87;;
4986;SDS011;12674;51.500;7.552;2023-04-15T10:44:55;8.03;;;6.63;;
4986;SDS011;12674;51.500;7.552;2023-04-15T10:46:58;8.53;;;6.83;;
4986;SDS011;12674;51.500;7.552;2023-04-15T10:49:05;10.10;;;6.90;;
4986;SDS011;12674;51.500;7.552;2023-04-15T10:51:09;6.73;;;6.13;;
4986;SDS011;12674;51.500;7.552;2023-04-15T10:53:19;7.90;;;6.97;;
4986;SDS011;12674;51.500;7.552;2023-04-15T10:55:32;8.27;;;6.80;;
4986;SDS011;12674;51.500;7.552;2023-04-15T10:57:36;13.60;;;8.00;;
4986;SDS011;12674;51.500;7.552;2023-04-15T10:59:59;7.23;;;6.50;;
4986;SDS011;12674;51.500;7.552;2023-04-15T11:02:07;10.80;;;8.30;;
4986;SDS011;12674;51.500;7.552;2023-04-15T11:04:10;9.63;;;8.03;;
4986;SDS011;12674;51.500;7.552;2023-04-15T11:06:13;10.67;;;8.20;;
4986;SDS011;12674;51.500;7.552;2023-04-15T11:08:17;10.50;;;9.40;;
4986;SDS011;12674;51.500;7.552;2023-04-15T11:12:59;8.13;;;6.83;;
4986;SDS011;12674;51.500;7.552;2023-04-15T11:15:24;7.93;;;6.50;;
4986;SDS011;12674;51.500;7.552;2023-04-15T11:17:32;13.70;;;6.67;;
4986;SDS011;12674;51.500;7.552;2023-04-15T11:19:35;9.53;;;6.43;;
4986;SDS011;12674;51.500;7.552;2023-04-15T11:21:41;7.80;;;6.80;;
4986;SDS011;12674;51.500;7.552;2023-04-15T11:23:46;6.47;;;5.90;;
4986;SDS011;12674;51.500;7.552;2023-04-15T11:25:53;6.63;;;5.23;;
4986;SDS011;12674;51.500;7.552;2023-04-15T11:28:00;5.93;;;5.23;;
4986;SDS011;12674;51.500;7.552;2023-04-15T11:30:16;8.00;;;6.60;;
4986;SDS011;12674;51.500;7.552;2023-04-15T11:32:23;7.27;;;5.90;;
4986;SDS011;12674;51.500;7.552;2023-04-15T11:34:28;7.17;;;6.07;;
4986;SDS011;12674;51.500;7.552;2023-04-15T11:36:37;10.33;;;5.80;;
4986;SDS011;12674;51.500;7.552;2023-04-15T11:38:45;5.70;;;5.17;;
4986;SDS011;12674;51.500;7.552;2023-04-15T11:40:53;6.67;;;6.00;;
4986;SDS011;12674;51.500;7.552;2023-04-15T11:43:03;7.03;;;5.80;;
4986;SDS011;12674;51.500;7.552;2023-04-15T11:45:09;8.83;;;6.60;;
4986;SDS011;12674;51.500;7.552;2023-04-15T11:47:21;7.47;;;6.30;;
4986;SDS011;12674;51.500;7.552;2023-04-15T11:49:26;9.00;;;7.23;;
4986;SDS011;12674;51.500;7.552;2023-04-15T11:51:31;7.83;;;7.00;;
4986;SDS011;12674;51.500;7.552;2023-04-15T11:53:36;7.93;;;6.40;;
4986;SDS011;12674;51.500;7.552;2023-04-15T11:55:42;9.53;;;6.50;;
4986;SDS011;12674;51.500;7.552;2023-04-15T11:57:48;7.70;;;6.97;;
4986;SDS011;12674;51.500;7.552;2023-04-15T11:59:53;8.87;;;6.87;;
4986;SDS011;12674;51.500;7.552;2023-04-15T12:01:56;7.40;;;6.00;;
4986;SDS011;12674;51.500;7.552;2023-04-15T12:04:05;7.53;;;6.50;;
4986;SDS011;12674;51.500;7.552;2023-04-15T12:06:14;8.40;;;6.57;;
4986;SDS011;12674;51.500;7.552;2023-04-15T12:08:20;7.67;;;6.07;;
4986;SDS011;12674;51.500;7.552;2023-04-15T12:10:26;9.33;;;6.67;;
4986;SDS011;12674;51.500;7.552;2023-04-15T12:12:32;7.40;;;6.67;;
4986;SDS011;12674;51.500;7.552;2023-04-15T12:14:36;6.90;;;6.20;;
4986;SDS011;12674;51.500;7.552;2023-04-15T12:16:43;12.27;;;6.40;;
4986;SDS011;12674;51.500;7.552;2023-04-15T12:18:54;6.97;;;6.20;;
4986;SDS011;12674;51.500;7.552;2023-04-15T12:21:03;7.50;;;6.60;;
4986;SDS011;12674;51.500;7.552;2023-04-15T12:23:12;7.27;;;5.70;;
4986;SDS011;12674;51.500;7.552;2023-04-15T12:25:31;8.93;;;6.40;;
4986;SDS011;12674;51.500;7.552;2023-04-15T12:27:36;9.30;;;5.70;;
4986;SDS011;12674;51.500;7.552;2023-04-15T12:29:42;7.77;;;5.47;;
4986;SDS011;12674;51.500;7.552;2023-04-15T12:31:48;6.47;;;5.63;;
4986;SDS011;12674;51.500;7.552;2023-04-15T12:33:54;16.33;;;5.40;;
4986;SDS011;12674;51.500;7.552;2023-04-15T12:35:59;7.90;;;6.17;;
4986;SDS011;12674;51.500;7.552;2023-04-15T12:38:03;6.97;;;6.27;;
4986;SDS011;12674;51.500;7.552;2023-04-15T12:40:07;6.00;;;5.40;;
4986;SDS011;12674;51.500;7.552;2023-04-15T12:42:13;11.07;;;5.67;;
4986;SDS011;12674;51.500;7.552;2023-04-15T12:44:21;6.30;;;5.60;;
4986;SDS011;12674;51.500;7.552;2023-04-15T12:46:26;7.23;;;5.20;;
4986;SDS011;12674;51.500;7.552;2023-04-15T12:48:30;9.20;;;5.50;;
4986;SDS011;12674;51.500;7.552;2023-04-15T12:50:35;6.63;;;5.97;;
4986;SDS011;12674;51.500;7.552;2023-04-15T12:52:38;5.63;;;5.00;;
4986;SDS011;12674;51.500;7.552;2023-04-15T12:54:42;6.63;;;5.97;;
4986;SDS011;12674;51.500;7.552;2023-04-15T12:56:49;6.20;;;5.60;;
4986;SDS011;12674;51.500;7.552;2023-04-15T12:58:54;8.17;;;5.33;;
4986;SDS011;12674;51.500;7.552;2023-04-15T13:00:57;8.70;;;5.30;;
4986;SDS011;12674;51.500;7.552;2023-04-15T13:03:05;7.37;;;5.40;;
4986;SDS011;12674;51.500;7.552;2023-04-15T13:05:09;6.43;;;5.90;;